sensor_id;sensor_type;location;lat;lon;timestamp;P1;durP1;ratioP1;P2;durP2;ratioP2
48875;SDS011;34689;51.644;5.618;2023-03-12T00:00:34;6.30;;;1.45;;
48875;SDS011;34689;51.644;5.618;2023-03-12T00:03:00;6.68;;;2.20;;
48875;SDS011;34689;51.644;5.618;2023-03-12T00:05:26;2.92;;;1.60;;
48875;SDS011;34689;51.644;5.618;2023-03-12T00:07:51;9.90;;;1.63;;
48875;SDS011;34689;51.644;5.618;2023-03-12T00:10:18;3.72;;;1.25;;
48875;SDS011;34689;51.644;5.618;2023-03-12T00:12:44;4.40;;;1.30;;
48875;SDS011;34689;51.644;5.618;2023-03-12T00:15:10;4.35;;;1.88;;
48875;SDS011;34689;51.644;5.618;2023-03-12T00:17:36;2.90;;;1.38;;
48875;SDS011;34689;51.644;5.618;2023-03-12T00:20:02;2.72;;;1.55;;
48875;SDS011;34689;51.644;5.618;2023-03-12T00:22:29;8.10;;;2.30;;
48875;SDS011;34689;51.644;5.618;2023-03-12T00:24:55;3.50;;;1.38;;
48875;SDS011;34689;51.644;5.618;2023-03-12T00:27:22;3.90;;;1.85;;
48875;SDS011;34689;51.644;5.618;2023-03-12T00:29:49;4.68;;;1.77;;
48875;SDS011;34689;51.644;5.618;2023-03-12T00:32:15;10.55;;;2.38;;
48875;SDS011;34689;51.644;5.618;2023-03-12T00:34:42;3.33;;;1.95;;
48875;SDS011;34689;51.644;5.618;2023-03-12T00:37:07;2.80;;;1.55;;
48875;SDS011;34689;51.644;5.618;2023-03-12T00:39:33;4.13;;;1.83;;
48875;SDS011;34689;51.644;5.618;2023-03-12T00:41:59;6.80;;;1.73;;
48875;SDS011;34689;51.644;5.618;2023-03-12T00:44:26;5.18;;;1.38;;
48875;SDS011;34689;51.644;5.618;2023-03-12T00:46:52;6.68;;;2.05;;
48875;SDS011;34689;51.644;5.618;2023-03-12T00:49:18;4.13;;;1.58;;
48875;SDS011;34689;51.644;5.618;2023-03-12T00:51:43;2.17;;;1.23;;
48875;SDS011;34689;51.644;5.618;2023-03-12T00:54:09;3.13;;;1.35;;
48875;SDS011;34689;51.644;5.618;2023-03-12T00:56:35;5.95;;;2.03;;
48875;SDS011;34689;51.644;5.618;2023-03-12T00:59:01;6.32;;;1.92;;
48875;SDS011;34689;51.644;5.618;2023-03-12T01:01:26;3.75;;;1.60;;
48875;SDS011;34689;51.644;5.618;2023-03-12T01:03:52;2.80;;;1.60;;
48875;SDS011;34689;51.644;5.618;2023-03-12T01:06:19;12.73;;;2.20;;
48875;SDS011;34689;51.644;5.618;2023-03-12T01:08:45;3.13;;;1.65;;
48875;SDS011;34689;51.644;5.618;2023-03-12T01:11:11;2.38;;;1.30;;
48875;SDS011;34689;51.644;5.618;2023-03-12T01:13:38;2.75;;;1.50;;
48875;SDS011;34689;51.644;5.618;2023-03-12T01:16:04;2.05;;;1.05;;
48875;SDS011;34689;51.644;5.618;2023-03-12T01:18:30;3.13;;;1.40;;
48875;SDS011;34689;51.644;5.618;2023-03-12T01:20:56;2.92;;;1.30;;
48875;SDS011;34689;51.644;5.618;2023-03-12T01:23:22;3.70;;;2.03;;
48875;SDS011;34689;51.644;5.618;2023-03-12T01:25:47;3.35;;;1.52;;
48875;SDS011;34689;51.644;5.618;2023-03-12T01:28:15;3.17;;;1.48;;
48875;SDS011;34689;51.644;5.618;2023-03-12T01:30:42;2.45;;;1.65;;
48875;SDS011;34689;51.644;5.618;2023-03-12T01:33:07;4.28;;;1.65;;
48875;SDS011;34689;51.644;5.618;2023-03-12T01:35:36;7.40;;;2.30;;
48875;SDS011;34689;51.644;5.618;2023-03-12T01:38:04;2.10;;;1.20;;
48875;SDS011;34689;51.644;5.618;2023-03-12T01:40:36;3.22;;;1.10;;
48875;SDS011;34689;51.644;5.618;2023-03-12T01:45:57;2.13;;;1.17;;
48875;SDS011;34689;51.644;5.618;2023-03-12T01:48:46;3.53;;;1.60;;
48875;SDS011;34689;51.644;5.618;2023-03-12T01:51:15;1.52;;;0.95;;
48875;SDS011;34689;51.644;5.618;2023-03-12T01:53:44;3.85;;;1.38;;
48875;SDS011;34689;51.644;5.618;2023-03-12T01:56:12;1.55;;;1.20;;
48875;SDS011;34689;51.644;5.618;2023-03-12T01:58:40;1.42;;;1.00;;
48875;SDS011;34689;51.644;5.618;2023-03-12T02:01:09;3.75;;;1.77;;
48875;SDS011;34689;51.644;5.618;2023-03-12T02:03:34;5.10;;;1.75;;
48875;SDS011;34689;51.644;5.618;2023-03-12T02:06:01;2.25;;;1.05;;
48875;SDS011;34689;51.644;5.618;2023-03-12T02:08:31;3.72;;;1.58;;
48875;SDS011;34689;51.644;5.618;2023-03-12T02:11:02;4.78;;;2.38;;
48875;SDS011;34689;51.644;5.618;2023-03-12T02:13:28;4.38;;;1.40;;
48875;SDS011;34689;51.644;5.618;2023-03-12T02:15:53;3.42;;;1.60;;
48875;SDS011;34689;51.644;5.618;2023-03-12T02:18:19;6.68;;;1.90;;
48875;SDS011;34689;51.644;5.618;2023-03-12T02:20:55;4.63;;;1.67;;
48875;SDS011;34689;51.644;5.618;2023-03-12T02:26:21;2.13;;;1.17;;
48875;SDS011;34689;51.644;5.618;2023-03-12T02:28:49;4.93;;;1.75;;
48875;SDS011;34689;51.644;5.618;2023-03-12T02:31:17;4.88;;;1.38;;
48875;SDS011;34689;51.644;5.618;2023-03-12T02:33:45;4.13;;;1.30;;
48875;SDS011;34689;51.644;5.618;2023-03-12T02:36:11;2.85;;;0.90;;
48875;SDS011;34689;51.644;5.618;2023-03-12T02:44:04;1.95;;;1.25;;
48875;SDS011;34689;51.644;5.618;2023-03-12T02:46:31;2.65;;;1.10;;
48875;SDS011;34689;51.644;5.618;2023-03-12T02:49:00;4.78;;;1.27;;
48875;SDS011;34689;51.644;5.618;2023-03-12T02:51:26;3.38;;;1.23;;
48875;SDS011;34689;51.644;5.618;2023-03-12T02:53:52;6.35;;;1.15;;
48875;SDS011;34689;51.644;5.618;2023-03-12T02:56:23;2.67;;;1.08;;
48875;SDS011;34689;51.644;5.618;2023-03-12T02:58:50;3.73;;;1.20;;
48875;SDS011;34689;51.644;5.618;2023-03-12T03:01:16;3.45;;;1.42;;
48875;SDS011;34689;51.644;5.618;2023-03-12T03:03:42;3.88;;;1.80;;
48875;SDS011;34689;51.644;5.618;2023-03-12T03:06:09;3.00;;;1.40;;
48875;SDS011;34689;51.644;5.618;2023-03-12T03:08:34;1.88;;;1.50;;
48875;SDS011;34689;51.644;5.618;2023-03-12T03:11:00;10.02;;;1.80;;
48875;SDS011;34689;51.644;5.618;2023-03-12T03:13:30;3.53;;;1.27;;
48875;SDS011;34689;51.644;5.618;2023-03-12T03:15:56;1.80;;;1.15;;
48875;SDS011;34689;51.644;5.618;2023-03-12T03:18:23;6.25;;;1.80;;
48875;SDS011;34689;51.644;5.618;2023-03-12T03:20:57;4.72;;;1.48;;
48875;SDS011;34689;51.644;5.618;2023-03-12T03:23:29;7.00;;;2.00;;
48875;SDS011;34689;51.644;5.618;2023-03-12T03:25:55;2.08;;;1.27;;
48875;SDS011;34689;51.644;5.618;2023-03-12T03:28:22;4.40;;;1.70;;
48875;SDS011;34689;51.644;5.618;2023-03-12T03:30:52;2.78;;;1.40;;
48875;SDS011;34689;51.644;5.618;2023-03-12T03:33:24;3.40;;;1.50;;
48875;SDS011;34689;51.644;5.618;2023-03-12T03:35:50;3.17;;;1.30;;
48875;SDS011;34689;51.644;5.618;2023-03-12T03:38:16;3.25;;;1.67;;
48875;SDS011;34689;51.644;5.618;2023-03-12T03:40:41;2.55;;;1.33;;
48875;SDS011;34689;51.644;5.618;2023-03-12T03:43:07;4.13;;;1.65;;
48875;SDS011;34689;51.644;5.618;2023-03-12T03:45:33;4.28;;;1.85;;
48875;SDS011;34689;51.644;5.618;2023-03-12T03:47:59;5.07;;;1.67;;
48875;SDS011;34689;51.644;5.618;2023-03-12T03:50:25;3.45;;;1.38;;
48875;SDS011;34689;51.644;5.618;2023-03-12T03:52:50;5.18;;;2.15;;
48875;SDS011;34689;51.644;5.618;2023-03-12T03:55:16;2.40;;;1.60;;
48875;SDS011;34689;51.644;5.618;2023-03-12T03:57:42;1.63;;;1.20;;
48875;SDS011;34689;51.644;5.618;2023-03-12T04:00:08;4.28;;;1.85;;
48875;SDS011;34689;51.644;5.618;2023-03-12T04:02:37;3.63;;;1.65;;
48875;SDS011;34689;51.644;5.618;2023-03-12T04:05:03;5.85;;;2.38;;
48875;SDS011;34689;51.644;5.618;2023-03-12T04:07:29;4.95;;;2.25;;
48875;SDS011;34689;51.644;5.618;2023-03-12T04:09:54;3.40;;;1.50;;
48875;SDS011;34689;51.644;5.618;2023-03-12T04:12:21;2.30;;;1.60;;
48875;SDS011;34689;51.644;5.618;2023-03-12T04:14:50;6.00;;;1.20;;
48875;SDS011;34689;51.644;5.618;2023-03-12T04:17:16;4.97;;;2.03;;
48875;SDS011;34689;51.644;5.618;2023-03-12T04:19:42;3.25;;;1.55;;
48875;SDS011;34689;51.644;5.618;2023-03-12T04:22:08;7.07;;;2.08;;
48875;SDS011;34689;51.644;5.618;2023-03-12T04:24:33;6.70;;;1.90;;
48875;SDS011;34689;51.644;5.618;2023-03-12T04:26:59;4.95;;;2.05;;
48875;SDS011;34689;51.644;5.618;2023-03-12T04:29:25;3.22;;;1.65;;
48875;SDS011;34689;51.644;5.618;2023-03-12T04:31:51;3.47;;;1.73;;
48875;SDS011;34689;51.644;5.618;2023-03-12T04:34:17;5.15;;;2.03;;
48875;SDS011;34689;51.644;5.618;2023-03-12T04:36:42;4.88;;;2.25;;
48875;SDS011;34689;51.644;5.618;2023-03-12T04:39:09;7.47;;;2.45;;
48875;SDS011;34689;51.644;5.618;2023-03-12T04:41:35;4.47;;;2.25;;
48875;SDS011;34689;51.644;5.618;2023-03-12T04:44:01;3.22;;;1.55;;
48875;SDS011;34689;51.644;5.618;2023-03-12T04:46:27;3.38;;;1.75;;
48875;SDS011;34689;51.644;5.618;2023-03-12T04:48:52;5.82;;;2.05;;
48875;SDS011;34689;51.644;5.618;2023-03-12T04:51:18;5.13;;;2.00;;
48875;SDS011;34689;51.644;5.618;2023-03-12T04:53:44;3.92;;;2.03;;
48875;SDS011;34689;51.644;5.618;2023-03-12T04:56:10;7.72;;;2.17;;
48875;SDS011;34689;51.644;5.618;2023-03-12T04:58:37;4.68;;;2.33;;
48875;SDS011;34689;51.644;5.618;2023-03-12T05:01:03;4.80;;;1.48;;
48875;SDS011;34689;51.644;5.618;2023-03-12T05:03:30;5.22;;;1.63;;
48875;SDS011;34689;51.644;5.618;2023-03-12T05:05:56;2.95;;;1.50;;
48875;SDS011;34689;51.644;5.618;2023-03-12T05:08:22;2.85;;;1.50;;
48875;SDS011;34689;51.644;5.618;2023-03-12T05:10:48;3.50;;;1.88;;
48875;SDS011;34689;51.644;5.618;2023-03-12T05:13:18;3.85;;;1.63;;
48875;SDS011;34689;51.644;5.618;2023-03-12T05:15:45;4.78;;;1.77;;
48875;SDS011;34689;51.644;5.618;2023-03-12T05:18:13;4.55;;;1.67;;
48875;SDS011;34689;51.644;5.618;2023-03-12T05:20:39;2.75;;;1.20;;
48875;SDS011;34689;51.644;5.618;2023-03-12T05:23:04;4.10;;;1.17;;
48875;SDS011;34689;51.644;5.618;2023-03-12T05:25:30;2.95;;;1.48;;
48875;SDS011;34689;51.644;5.618;2023-03-12T05:27:56;2.40;;;1.48;;
48875;SDS011;34689;51.644;5.618;2023-03-12T05:30:21;8.98;;;1.92;;
48875;SDS011;34689;51.644;5.618;2023-03-12T05:32:47;3.42;;;1.58;;
48875;SDS011;34689;51.644;5.618;2023-03-12T05:35:13;7.90;;;1.95;;
48875;SDS011;34689;51.644;5.618;2023-03-12T05:37:38;5.78;;;2.00;;
48875;SDS011;34689;51.644;5.618;2023-03-12T05:40:08;2.28;;;1.35;;
48875;SDS011;34689;51.644;5.618;2023-03-12T05:42:35;5.10;;;1.30;;
48875;SDS011;34689;51.644;5.618;2023-03-12T05:45:00;3.88;;;1.42;;
48875;SDS011;34689;51.644;5.618;2023-03-12T05:47:27;3.78;;;1.27;;
48875;SDS011;34689;51.644;5.618;2023-03-12T05:49:52;2.72;;;1.13;;
48875;SDS011;34689;51.644;5.618;2023-03-12T05:52:18;4.25;;;1.45;;
48875;SDS011;34689;51.644;5.618;2023-03-12T05:54:43;3.55;;;1.75;;
48875;SDS011;34689;51.644;5.618;2023-03-12T05:57:09;8.02;;;2.15;;
48875;SDS011;34689;51.644;5.618;2023-03-12T05:59:35;2.67;;;1.30;;
48875;SDS011;34689;51.644;5.618;2023-03-12T06:02:00;4.65;;;1.48;;
48875;SDS011;34689;51.644;5.618;2023-03-12T06:04:26;7.45;;;2.40;;
48875;SDS011;34689;51.644;5.618;2023-03-12T06:06:52;8.60;;;2.05;;
48875;SDS011;34689;51.644;5.618;2023-03-12T06:09:17;4.50;;;1.63;;
48875;SDS011;34689;51.644;5.618;2023-03-12T06:11:43;2.90;;;1.38;;
48875;SDS011;34689;51.644;5.618;2023-03-12T06:14:09;3.35;;;1.50;;
48875;SDS011;34689;51.644;5.618;2023-03-12T06:16:34;2.95;;;1.55;;
48875;SDS011;34689;51.644;5.618;2023-03-12T06:19:00;4.38;;;1.55;;
48875;SDS011;34689;51.644;5.618;2023-03-12T06:21:29;2.45;;;1.40;;
48875;SDS011;34689;51.644;5.618;2023-03-12T06:23:56;3.90;;;1.73;;
48875;SDS011;34689;51.644;5.618;2023-03-12T06:26:22;7.22;;;2.38;;
48875;SDS011;34689;51.644;5.618;2023-03-12T06:28:49;2.90;;;1.50;;
48875;SDS011;34689;51.644;5.618;2023-03-12T06:31:16;7.05;;;2.53;;
48875;SDS011;34689;51.644;5.618;2023-03-12T06:33:43;4.00;;;1.88;;
48875;SDS011;34689;51.644;5.618;2023-03-12T06:36:09;6.50;;;2.38;;
48875;SDS011;34689;51.644;5.618;2023-03-12T06:38:35;2.55;;;1.40;;
48875;SDS011;34689;51.644;5.618;2023-03-12T06:41:11;6.05;;;2.00;;
48875;SDS011;34689;51.644;5.618;2023-03-12T06:43:39;5.18;;;2.15;;
48875;SDS011;34689;51.644;5.618;2023-03-12T06:46:06;1.83;;;1.25;;
48875;SDS011;34689;51.644;5.618;2023-03-12T06:48:35;4.90;;;2.42;;
48875;SDS011;34689;51.644;5.618;2023-03-12T06:51:02;9.30;;;1.95;;
48875;SDS011;34689;51.644;5.618;2023-03-12T06:53:28;3.63;;;2.40;;
48875;SDS011;34689;51.644;5.618;2023-03-12T06:55:54;5.25;;;1.90;;
48875;SDS011;34689;51.644;5.618;2023-03-12T06:58:19;2.20;;;1.70;;
48875;SDS011;34689;51.644;5.618;2023-03-12T07:00:45;6.82;;;2.20;;
48875;SDS011;34689;51.644;5.618;2023-03-12T07:03:11;6.22;;;2.45;;
48875;SDS011;34689;51.644;5.618;2023-03-12T07:05:36;3.80;;;2.22;;
48875;SDS011;34689;51.644;5.618;2023-03-12T07:08:02;2.78;;;2.03;;
48875;SDS011;34689;51.644;5.618;2023-03-12T07:10:28;5.35;;;2.55;;
48875;SDS011;34689;51.644;5.618;2023-03-12T07:12:54;6.50;;;2.95;;
48875;SDS011;34689;51.644;5.618;2023-03-12T07:15:20;7.88;;;1.98;;
48875;SDS011;34689;51.644;5.618;2023-03-12T07:17:46;4.50;;;1.95;;
48875;SDS011;34689;51.644;5.618;2023-03-12T07:20:12;3.03;;;1.70;;
48875;SDS011;34689;51.644;5.618;2023-03-12T07:22:38;8.60;;;3.10;;
48875;SDS011;34689;51.644;5.618;2023-03-12T07:25:04;4.68;;;2.50;;
48875;SDS011;34689;51.644;5.618;2023-03-12T07:27:30;8.13;;;2.53;;
48875;SDS011;34689;51.644;5.618;2023-03-12T07:29:56;6.43;;;2.25;;
48875;SDS011;34689;51.644;5.618;2023-03-12T07:32:21;5.82;;;2.30;;
48875;SDS011;34689;51.644;5.618;2023-03-12T07:34:47;8.38;;;3.15;;
48875;SDS011;34689;51.644;5.618;2023-03-12T07:37:13;4.82;;;2.53;;
48875;SDS011;34689;51.644;5.618;2023-03-12T07:39:38;4.65;;;2.83;;
48875;SDS011;34689;51.644;5.618;2023-03-12T07:42:04;6.40;;;2.78;;
48875;SDS011;34689;51.644;5.618;2023-03-12T07:44:30;4.18;;;2.50;;
48875;SDS011;34689;51.644;5.618;2023-03-12T07:46:56;6.28;;;2.20;;
48875;SDS011;34689;51.644;5.618;2023-03-12T07:49:22;6.72;;;2.60;;
48875;SDS011;34689;51.644;5.618;2023-03-12T07:51:47;4.82;;;2.88;;
48875;SDS011;34689;51.644;5.618;2023-03-12T07:54:13;5.80;;;3.63;;
48875;SDS011;34689;51.644;5.618;2023-03-12T07:56:38;8.63;;;3.38;;
48875;SDS011;34689;51.644;5.618;2023-03-12T07:59:04;3.65;;;2.08;;
48875;SDS011;34689;51.644;5.618;2023-03-12T08:01:30;7.03;;;2.67;;
48875;SDS011;34689;51.644;5.618;2023-03-12T08:03:59;10.45;;;4.68;;
48875;SDS011;34689;51.644;5.618;2023-03-12T08:06:26;8.35;;;3.50;;
48875;SDS011;34689;51.644;5.618;2023-03-12T08:08:52;6.80;;;3.75;;
48875;SDS011;34689;51.644;5.618;2023-03-12T08:11:18;10.20;;;3.53;;
48875;SDS011;34689;51.644;5.618;2023-03-12T08:13:44;8.55;;;3.65;;
48875;SDS011;34689;51.644;5.618;2023-03-12T08:16:10;9.57;;;3.33;;
48875;SDS011;34689;51.644;5.618;2023-03-12T08:18:36;6.50;;;3.42;;
48875;SDS011;34689;51.644;5.618;2023-03-12T08:21:02;5.60;;;2.97;;
48875;SDS011;34689;51.644;5.618;2023-03-12T08:23:27;4.63;;;3.03;;
48875;SDS011;34689;51.644;5.618;2023-03-12T08:25:53;3.95;;;2.25;;
48875;SDS011;34689;51.644;5.618;2023-03-12T08:28:19;2.45;;;1.48;;
48875;SDS011;34689;51.644;5.618;2023-03-12T08:30:47;4.55;;;2.15;;
48875;SDS011;34689;51.644;5.618;2023-03-12T08:33:14;3.03;;;2.28;;
48875;SDS011;34689;51.644;5.618;2023-03-12T08:35:40;5.22;;;2.42;;
48875;SDS011;34689;51.644;5.618;2023-03-12T08:38:06;6.13;;;3.60;;
48875;SDS011;34689;51.644;5.618;2023-03-12T08:40:32;5.80;;;2.58;;
48875;SDS011;34689;51.644;5.618;2023-03-12T08:42:58;5.57;;;3.17;;
48875;SDS011;34689;51.644;5.618;2023-03-12T08:45:23;4.22;;;2.95;;
48875;SDS011;34689;51.644;5.618;2023-03-12T08:47:49;7.95;;;5.78;;
48875;SDS011;34689;51.644;5.618;2023-03-12T08:50:15;7.03;;;4.03;;
48875;SDS011;34689;51.644;5.618;2023-03-12T08:52:41;6.25;;;3.38;;
48875;SDS011;34689;51.644;5.618;2023-03-12T08:55:08;4.65;;;3.33;;
48875;SDS011;34689;51.644;5.618;2023-03-12T08:57:34;6.70;;;4.07;;
48875;SDS011;34689;51.644;5.618;2023-03-12T09:00:01;5.28;;;3.45;;
48875;SDS011;34689;51.644;5.618;2023-03-12T09:02:29;4.15;;;2.97;;
48875;SDS011;34689;51.644;5.618;2023-03-12T09:04:55;7.90;;;4.47;;
48875;SDS011;34689;51.644;5.618;2023-03-12T09:07:20;5.45;;;3.45;;
48875;SDS011;34689;51.644;5.618;2023-03-12T09:09:46;5.60;;;4.15;;
48875;SDS011;34689;51.644;5.618;2023-03-12T09:12:12;5.30;;;3.45;;
48875;SDS011;34689;51.644;5.618;2023-03-12T09:14:38;5.97;;;3.90;;
48875;SDS011;34689;51.644;5.618;2023-03-12T09:17:04;5.70;;;3.85;;
48875;SDS011;34689;51.644;5.618;2023-03-12T09:19:30;4.07;;;3.17;;
48875;SDS011;34689;51.644;5.618;2023-03-12T09:21:56;5.10;;;3.33;;
48875;SDS011;34689;51.644;5.618;2023-03-12T09:24:22;7.72;;;4.05;;
48875;SDS011;34689;51.644;5.618;2023-03-12T09:26:48;4.82;;;2.83;;
48875;SDS011;34689;51.644;5.618;2023-03-12T09:29:13;7.10;;;4.40;;
48875;SDS011;34689;51.644;5.618;2023-03-12T09:31:39;5.88;;;3.85;;
48875;SDS011;34689;51.644;5.618;2023-03-12T09:34:05;6.55;;;3.67;;
48875;SDS011;34689;51.644;5.618;2023-03-12T09:36:31;12.48;;;4.20;;
48875;SDS011;34689;51.644;5.618;2023-03-12T09:38:57;7.10;;;4.22;;
48875;SDS011;34689;51.644;5.618;2023-03-12T09:41:24;8.93;;;4.20;;
48875;SDS011;34689;51.644;5.618;2023-03-12T09:46:45;10.48;;;5.68;;
48875;SDS011;34689;51.644;5.618;2023-03-12T09:49:28;8.90;;;5.20;;
48875;SDS011;34689;51.644;5.618;2023-03-12T09:52:20;14.68;;;5.97;;
48875;SDS011;34689;51.644;5.618;2023-03-12T09:54:53;12.05;;;6.28;;
48875;SDS011;34689;51.644;5.618;2023-03-12T09:57:22;12.77;;;5.80;;
48875;SDS011;34689;51.644;5.618;2023-03-12T09:59:51;9.73;;;6.00;;
48875;SDS011;34689;51.644;5.618;2023-03-12T10:05:16;13.95;;;7.75;;
48875;SDS011;34689;51.644;5.618;2023-03-12T10:10:55;18.40;;;8.73;;
48875;SDS011;34689;51.644;5.618;2023-03-12T10:16:07;15.38;;;8.43;;
48875;SDS011;34689;51.644;5.618;2023-03-12T10:24:44;16.08;;;8.50;;
48875;SDS011;34689;51.644;5.618;2023-03-12T10:27:11;15.77;;;9.15;;
48875;SDS011;34689;51.644;5.618;2023-03-12T10:29:40;16.42;;;7.80;;
48875;SDS011;34689;51.644;5.618;2023-03-12T10:34:49;16.73;;;9.05;;
48875;SDS011;34689;51.644;5.618;2023-03-12T10:39:49;15.80;;;9.65;;
48875;SDS011;34689;51.644;5.618;2023-03-12T10:42:19;15.10;;;9.10;;
48875;SDS011;34689;51.644;5.618;2023-03-12T10:44:48;11.98;;;7.13;;
48875;SDS011;34689;51.644;5.618;2023-03-12T10:47:32;19.08;;;9.20;;
48875;SDS011;34689;51.644;5.618;2023-03-12T10:50:19;29.48;;;13.20;;
48875;SDS011;34689;51.644;5.618;2023-03-12T10:52:47;21.38;;;11.65;;
48875;SDS011;34689;51.644;5.618;2023-03-12T10:57:51;19.00;;;10.02;;
48875;SDS011;34689;51.644;5.618;2023-03-12T11:00:19;18.27;;;8.27;;
48875;SDS011;34689;51.644;5.618;2023-03-12T11:03:02;17.20;;;9.00;;
48875;SDS011;34689;51.644;5.618;2023-03-12T11:05:30;20.95;;;10.25;;
48875;SDS011;34689;51.644;5.618;2023-03-12T11:08:01;23.83;;;10.90;;
48875;SDS011;34689;51.644;5.618;2023-03-12T11:13:04;26.75;;;11.10;;
48875;SDS011;34689;51.644;5.618;2023-03-12T11:15:44;14.80;;;7.88;;
48875;SDS011;34689;51.644;5.618;2023-03-12T11:18:18;13.65;;;6.95;;
48875;SDS011;34689;51.644;5.618;2023-03-12T11:20:44;19.40;;;7.47;;
48875;SDS011;34689;51.644;5.618;2023-03-12T11:23:15;12.60;;;7.70;;
48875;SDS011;34689;51.644;5.618;2023-03-12T11:25:49;18.85;;;8.73;;
48875;SDS011;34689;51.644;5.618;2023-03-12T11:28:20;15.80;;;8.15;;
48875;SDS011;34689;51.644;5.618;2023-03-12T11:30:48;13.00;;;7.70;;
48875;SDS011;34689;51.644;5.618;2023-03-12T11:33:16;13.82;;;7.78;;
48875;SDS011;34689;51.644;5.618;2023-03-12T11:36:02;18.25;;;8.18;;
48875;SDS011;34689;51.644;5.618;2023-03-12T11:38:49;23.88;;;9.82;;
48875;SDS011;34689;51.644;5.618;2023-03-12T11:44:19;20.27;;;8.20;;
48875;SDS011;34689;51.644;5.618;2023-03-12T11:58:38;20.75;;;9.52;;
48875;SDS011;34689;51.644;5.618;2023-03-12T12:07:33;14.85;;;8.38;;
48875;SDS011;34689;51.644;5.618;2023-03-12T12:09:56;16.40;;;7.72;;
48875;SDS011;34689;51.644;5.618;2023-03-12T12:18:17;23.23;;;8.27;;
48875;SDS011;34689;51.644;5.618;2023-03-12T12:21:05;19.83;;;6.30;;
48875;SDS011;34689;51.644;5.618;2023-03-12T12:26:26;22.33;;;7.53;;
48875;SDS011;34689;51.644;5.618;2023-03-12T12:31:58;22.20;;;6.43;;
48875;SDS011;34689;51.644;5.618;2023-03-12T12:40:23;14.07;;;4.30;;
48875;SDS011;34689;51.644;5.618;2023-03-12T12:46:03;15.80;;;4.15;;
48875;SDS011;34689;51.644;5.618;2023-03-12T12:48:56;15.95;;;3.40;;
48875;SDS011;34689;51.644;5.618;2023-03-12T12:51:29;16.33;;;4.75;;
48875;SDS011;34689;51.644;5.618;2023-03-12T12:54:03;12.05;;;4.15;;
48875;SDS011;34689;51.644;5.618;2023-03-12T13:01:49;23.13;;;5.35;;
48875;SDS011;34689;51.644;5.618;2023-03-12T13:04:28;11.68;;;3.20;;
48875;SDS011;34689;51.644;5.618;2023-03-12T13:14:52;17.42;;;3.30;;
48875;SDS011;34689;51.644;5.618;2023-03-12T13:19:51;15.52;;;3.03;;
48875;SDS011;34689;51.644;5.618;2023-03-12T13:28:00;10.13;;;2.97;;
48875;SDS011;34689;51.644;5.618;2023-03-12T13:30:49;10.57;;;2.67;;
48875;SDS011;34689;51.644;5.618;2023-03-12T13:33:17;6.85;;;2.30;;
48875;SDS011;34689;51.644;5.618;2023-03-12T13:39:01;11.60;;;3.05;;
48875;SDS011;34689;51.644;5.618;2023-03-12T13:41:59;12.32;;;1.90;;
48875;SDS011;34689;51.644;5.618;2023-03-12T13:46:58;10.40;;;1.63;;
48875;SDS011;34689;51.644;5.618;2023-03-12T13:49:34;15.30;;;2.72;;
48875;SDS011;34689;51.644;5.618;2023-03-12T13:52:21;14.63;;;2.40;;
48875;SDS011;34689;51.644;5.618;2023-03-12T13:55:00;8.35;;;1.70;;
48875;SDS011;34689;51.644;5.618;2023-03-12T14:00:05;16.17;;;2.72;;
48875;SDS011;34689;51.644;5.618;2023-03-12T14:02:41;7.32;;;1.50;;
48875;SDS011;34689;51.644;5.618;2023-03-12T14:05:21;12.50;;;3.30;;
48875;SDS011;34689;51.644;5.618;2023-03-12T14:11:05;9.45;;;2.05;;
48875;SDS011;34689;51.644;5.618;2023-03-12T14:16:43;8.32;;;1.25;;
48875;SDS011;34689;51.644;5.618;2023-03-12T14:19:24;7.57;;;1.50;;
48875;SDS011;34689;51.644;5.618;2023-03-12T14:21:52;11.70;;;1.55;;
48875;SDS011;34689;51.644;5.618;2023-03-12T14:24:22;13.23;;;2.13;;
48875;SDS011;34689;51.644;5.618;2023-03-12T14:26:57;12.70;;;2.80;;
48875;SDS011;34689;51.644;5.618;2023-03-12T14:31:54;15.32;;;2.45;;
48875;SDS011;34689;51.644;5.618;2023-03-12T14:34:26;9.48;;;1.65;;
48875;SDS011;34689;51.644;5.618;2023-03-12T14:39:49;9.00;;;1.70;;
48875;SDS011;34689;51.644;5.618;2023-03-12T14:42:32;9.30;;;2.67;;
48875;SDS011;34689;51.644;5.618;2023-03-12T14:45:09;11.02;;;2.50;;
48875;SDS011;34689;51.644;5.618;2023-03-12T14:47:54;18.13;;;2.55;;
48875;SDS011;34689;51.644;5.618;2023-03-12T14:52:50;16.10;;;3.50;;
48875;SDS011;34689;51.644;5.618;2023-03-12T14:55:19;12.75;;;2.20;;
48875;SDS011;34689;51.644;5.618;2023-03-12T14:57:47;14.40;;;2.40;;
48875;SDS011;34689;51.644;5.618;2023-03-12T15:00:24;15.57;;;2.30;;
48875;SDS011;34689;51.644;5.618;2023-03-12T15:02:51;25.85;;;3.45;;
48875;SDS011;34689;51.644;5.618;2023-03-12T15:05:19;17.63;;;3.42;;
48875;SDS011;34689;51.644;5.618;2023-03-12T15:07:46;11.57;;;2.80;;
48875;SDS011;34689;51.644;5.618;2023-03-12T15:10:19;13.82;;;3.08;;
48875;SDS011;34689;51.644;5.618;2023-03-12T15:12:47;8.82;;;1.83;;
48875;SDS011;34689;51.644;5.618;2023-03-12T15:15:35;10.27;;;2.78;;
48875;SDS011;34689;51.644;5.618;2023-03-12T15:18:01;5.60;;;1.90;;
48875;SDS011;34689;51.644;5.618;2023-03-12T15:20:29;10.43;;;2.33;;
48875;SDS011;34689;51.644;5.618;2023-03-12T15:22:57;10.88;;;2.65;;
48875;SDS011;34689;51.644;5.618;2023-03-12T15:25:25;12.27;;;2.25;;
48875;SDS011;34689;51.644;5.618;2023-03-12T15:30:37;14.10;;;2.63;;
48875;SDS011;34689;51.644;5.618;2023-03-12T15:33:11;11.10;;;2.15;;
48875;SDS011;34689;51.644;5.618;2023-03-12T15:38:46;9.27;;;2.45;;
48875;SDS011;34689;51.644;5.618;2023-03-12T15:41:16;13.00;;;3.17;;
48875;SDS011;34689;51.644;5.618;2023-03-12T15:43:56;6.78;;;2.30;;
48875;SDS011;34689;51.644;5.618;2023-03-12T15:46:23;17.92;;;2.97;;
48875;SDS011;34689;51.644;5.618;2023-03-12T15:48:52;7.25;;;1.77;;
48875;SDS011;34689;51.644;5.618;2023-03-12T15:51:34;13.77;;;3.38;;
48875;SDS011;34689;51.644;5.618;2023-03-12T15:56:28;13.02;;;2.65;;
48875;SDS011;34689;51.644;5.618;2023-03-12T15:59:00;8.25;;;2.08;;
48875;SDS011;34689;51.644;5.618;2023-03-12T16:01:26;4.78;;;1.75;;
48875;SDS011;34689;51.644;5.618;2023-03-12T16:03:52;11.80;;;2.28;;
48875;SDS011;34689;51.644;5.618;2023-03-12T16:06:22;12.93;;;2.05;;
48875;SDS011;34689;51.644;5.618;2023-03-12T16:09:09;17.08;;;2.40;;
48875;SDS011;34689;51.644;5.618;2023-03-12T16:11:40;14.52;;;2.60;;
48875;SDS011;34689;51.644;5.618;2023-03-12T16:14:09;13.77;;;3.22;;
48875;SDS011;34689;51.644;5.618;2023-03-12T16:16:48;22.55;;;3.28;;
48875;SDS011;34689;51.644;5.618;2023-03-12T16:19:17;12.85;;;2.58;;
48875;SDS011;34689;51.644;5.618;2023-03-12T16:21:45;16.25;;;2.95;;
48875;SDS011;34689;51.644;5.618;2023-03-12T16:24:11;12.68;;;2.10;;
48875;SDS011;34689;51.644;5.618;2023-03-12T16:26:50;16.27;;;2.90;;
48875;SDS011;34689;51.644;5.618;2023-03-12T16:29:19;13.45;;;2.97;;
48875;SDS011;34689;51.644;5.618;2023-03-12T16:31:53;13.85;;;2.63;;
48875;SDS011;34689;51.644;5.618;2023-03-12T16:34:20;11.18;;;3.58;;
48875;SDS011;34689;51.644;5.618;2023-03-12T16:36:48;14.90;;;3.58;;
48875;SDS011;34689;51.644;5.618;2023-03-12T16:39:14;11.55;;;2.40;;
48875;SDS011;34689;51.644;5.618;2023-03-12T16:41:40;19.45;;;2.63;;
48875;SDS011;34689;51.644;5.618;2023-03-12T16:44:11;8.30;;;2.60;;
48875;SDS011;34689;51.644;5.618;2023-03-12T16:46:43;9.52;;;2.47;;
48875;SDS011;34689;51.644;5.618;2023-03-12T16:49:14;11.05;;;2.05;;
48875;SDS011;34689;51.644;5.618;2023-03-12T16:51:41;4.88;;;1.60;;
48875;SDS011;34689;51.644;5.618;2023-03-12T16:54:10;14.45;;;2.55;;
48875;SDS011;34689;51.644;5.618;2023-03-12T16:56:35;8.80;;;2.35;;
48875;SDS011;34689;51.644;5.618;2023-03-12T16:59:03;10.85;;;2.47;;
48875;SDS011;34689;51.644;5.618;2023-03-12T17:01:35;6.85;;;1.77;;
48875;SDS011;34689;51.644;5.618;2023-03-12T17:04:01;17.42;;;2.28;;